sensor_id;sensor_type;location;lat;lon;timestamp;temperature;humidity
59961;DHT22;55902;-37.980;-63.602;2023-07-09T00:01:16;10.70;99.90
59961;DHT22;55902;-37.980;-63.602;2023-07-09T00:03:47;10.70;99.90
59961;DHT22;55902;-37.980;-63.602;2023-07-09T00:06:18;10.60;99.90
59961;DHT22;55902;-37.980;-63.602;2023-07-09T00:08:46;10.60;99.90
59961;DHT22;55902;-37.980;-63.602;2023-07-09T00:11:15;10.60;99.90
59961;DHT22;55902;-37.980;-63.602;2023-07-09T00:13:42;10.60;99.90
59961;DHT22;55902;-37.980;-63.602;2023-07-09T00:16:23;10.50;99.90
59961;DHT22;55902;-37.980;-63.602;2023-07-09T00:18:51;10.50;99.90
59961;DHT22;55902;-37.980;-63.602;2023-07-09T00:21:20;10.50;99.90
59961;DHT22;55902;-37.980;-63.602;2023-07-09T00:23:48;10.50;99.90
59961;DHT22;55902;-37.980;-63.602;2023-07-09T00:26:15;10.50;99.90
59961;DHT22;55902;-37.980;-63.602;2023-07-09T00:28:43;10.50;99.90
59961;DHT22;55902;-37.980;-63.602;2023-07-09T00:31:15;10.50;99.90
59961;DHT22;55902;-37.980;-63.602;2023-07-09T00:33:44;10.50;99.90
59961;DHT22;55902;-37.980;-63.602;2023-07-09T00:36:16;10.50;99.90
59961;DHT22;55902;-37.980;-63.602;2023-07-09T00:38:44;10.50;99.90
59961;DHT22;55902;-37.980;-63.602;2023-07-09T00:41:17;10.40;99.90
59961;DHT22;55902;-37.980;-63.602;2023-07-09T00:43:46;10.40;99.90
59961;DHT22;55902;-37.980;-63.602;2023-07-09T00:49:04;10.30;99.90
59961;DHT22;55902;-37.980;-63.602;2023-07-09T00:51:35;10.40;99.90
59961;DHT22;55902;-37.980;-63.602;2023-07-09T00:57:01;10.30;99.90
59961;DHT22;55902;-37.980;-63.602;2023-07-09T00:59:32;10.30;99.90
59961;DHT22;55902;-37.980;-63.602;2023-07-09T01:01:59;10.30;99.90
59961;DHT22;55902;-37.980;-63.602;2023-07-09T01:04:27;10.20;99.90
59961;DHT22;55902;-37.980;-63.602;2023-07-09T01:06:56;10.20;99.90
59961;DHT22;55902;-37.980;-63.602;2023-07-09T01:09:24;10.20;99.90
59961;DHT22;55902;-37.980;-63.602;2023-07-09T01:11:52;10.20;99.90
59961;DHT22;55902;-37.980;-63.602;2023-07-09T01:14:23;10.20;99.90
59961;DHT22;55902;-37.980;-63.602;2023-07-09T01:17:02;10.10;99.90
59961;DHT22;55902;-37.980;-63.602;2023-07-09T01:19:38;10.10;99.90
59961;DHT22;55902;-37.980;-63.602;2023-07-09T01:22:16;10.10;99.90
59961;DHT22;55902;-37.980;-63.602;2023-07-09T01:24:56;10.10;99.90
59961;DHT22;55902;-37.980;-63.602;2023-07-09T01:27:42;10.00;99.90
59961;DHT22;55902;-37.980;-63.602;2023-07-09T01:32:50;10.00;99.90
59961;DHT22;55902;-37.980;-63.602;2023-07-09T01:35:19;10.00;99.90
59961;DHT22;55902;-37.980;-63.602;2023-07-09T01:37:48;9.90;99.90
59961;DHT22;55902;-37.980;-63.602;2023-07-09T01:40:18;9.90;99.90
59961;DHT22;55902;-37.980;-63.602;2023-07-09T01:42:46;9.90;99.90
59961;DHT22;55902;-37.980;-63.602;2023-07-09T01:45:13;9.90;99.90
59961;DHT22;55902;-37.980;-63.602;2023-07-09T01:47:42;9.90;99.90
59961;DHT22;55902;-37.980;-63.602;2023-07-09T01:50:11;9.90;99.90
59961;DHT22;55902;-37.980;-63.602;2023-07-09T01:52:40;9.90;99.90
59961;DHT22;55902;-37.980;-63.602;2023-07-09T01:55:13;9.90;99.90
59961;DHT22;55902;-37.980;-63.602;2023-07-09T01:57:43;9.90;99.90
59961;DHT22;55902;-37.980;-63.602;2023-07-09T02:00:14;9.80;99.90
59961;DHT22;55902;-37.980;-63.602;2023-07-09T02:02:43;9.90;99.90
59961;DHT22;55902;-37.980;-63.602;2023-07-09T02:05:13;9.90;99.90
59961;DHT22;55902;-37.980;-63.602;2023-07-09T02:07:40;9.90;99.90
59961;DHT22;55902;-37.980;-63.602;2023-07-09T02:10:07;9.90;99.90
59961;DHT22;55902;-37.980;-63.602;2023-07-09T02:12:35;9.90;99.90
59961;DHT22;55902;-37.980;-63.602;2023-07-09T02:15:02;9.90;99.90
59961;DHT22;55902;-37.980;-63.602;2023-07-09T02:17:29;10.00;99.90
59961;DHT22;55902;-37.980;-63.602;2023-07-09T02:19:56;10.00;99.90
59961;DHT22;55902;-37.980;-63.602;2023-07-09T02:22:23;10.00;99.90
59961;DHT22;55902;-37.980;-63.602;2023-07-09T02:24:53;10.00;99.90
59961;DHT22;55902;-37.980;-63.602;2023-07-09T02:27:21;10.00;99.90
59961;DHT22;55902;-37.980;-63.602;2023-07-09T02:29:48;10.00;99.90
59961;DHT22;55902;-37.980;-63.602;2023-07-09T02:32:21;10.00;99.90
59961;DHT22;55902;-37.980;-63.602;2023-07-09T02:34:49;10.00;99.90
59961;DHT22;55902;-37.980;-63.602;2023-07-09T02:37:21;10.00;99.90
59961;DHT22;55902;-37.980;-63.602;2023-07-09T02:39:48;10.00;99.90
59961;DHT22;55902;-37.980;-63.602;2023-07-09T02:42:18;10.00;99.90
59961;DHT22;55902;-37.980;-63.602;2023-07-09T02:44:46;10.00;99.90
59961;DHT22;55902;-37.980;-63.602;2023-07-09T02:47:14;10.00;99.90
59961;DHT22;55902;-37.980;-63.602;2023-07-09T02:49:44;10.00;99.90
59961;DHT22;55902;-37.980;-63.602;2023-07-09T02:52:11;10.00;99.90
59961;DHT22;55902;-37.980;-63.602;2023-07-09T02:54:38;10.10;99.90
59961;DHT22;55902;-37.980;-63.602;2023-07-09T02:57:06;10.00;99.90
59961;DHT22;55902;-37.980;-63.602;2023-07-09T02:59:33;10.00;99.90
59961;DHT22;55902;-37.980;-63.602;2023-07-09T03:02:01;10.00;99.90
59961;DHT22;55902;-37.980;-63.602;2023-07-09T03:04:29;10.00;99.90
59961;DHT22;55902;-37.980;-63.602;2023-07-09T03:06:58;10.00;99.90
59961;DHT22;55902;-37.980;-63.602;2023-07-09T03:09:26;10.00;99.90
59961;DHT22;55902;-37.980;-63.602;2023-07-09T03:11:54;10.00;99.90
59961;DHT22;55902;-37.980;-63.602;2023-07-09T03:14:21;10.00;99.90
59961;DHT22;55902;-37.980;-63.602;2023-07-09T03:16:49;10.00;99.90
59961;DHT22;55902;-37.980;-63.602;2023-07-09T03:19:16;10.00;99.90
59961;DHT22;55902;-37.980;-63.602;2023-07-09T03:21:43;10.00;99.90
59961;DHT22;55902;-37.980;-63.602;2023-07-09T03:24:10;10.00;99.90
59961;DHT22;55902;-37.980;-63.602;2023-07-09T03:26:37;10.00;99.90
59961;DHT22;55902;-37.980;-63.602;2023-07-09T03:29:04;10.00;99.90
59961;DHT22;55902;-37.980;-63.602;2023-07-09T03:31:31;10.00;99.90
59961;DHT22;55902;-37.980;-63.602;2023-07-09T03:34:01;10.00;99.90
59961;DHT22;55902;-37.980;-63.602;2023-07-09T03:36:29;10.00;99.90
59961;DHT22;55902;-37.980;-63.602;2023-07-09T03:38:56;10.00;99.90
59961;DHT22;55902;-37.980;-63.602;2023-07-09T03:41:23;10.10;99.90
59961;DHT22;55902;-37.980;-63.602;2023-07-09T03:43:50;10.10;99.90
59961;DHT22;55902;-37.980;-63.602;2023-07-09T03:46:19;10.10;99.90
59961;DHT22;55902;-37.980;-63.602;2023-07-09T03:48:46;10.10;99.90
59961;DHT22;55902;-37.980;-63.602;2023-07-09T03:51:13;10.10;99.90
59961;DHT22;55902;-37.980;-63.602;2023-07-09T03:53:40;10.10;99.90
59961;DHT22;55902;-37.980;-63.602;2023-07-09T03:56:08;10.10;99.90
59961;DHT22;55902;-37.980;-63.602;2023-07-09T03:58:35;10.20;99.90
59961;DHT22;55902;-37.980;-63.602;2023-07-09T04:01:03;10.20;99.90
59961;DHT22;55902;-37.980;-63.602;2023-07-09T04:03:30;10.20;99.90
59961;DHT22;55902;-37.980;-63.602;2023-07-09T04:05:57;10.20;99.90
59961;DHT22;55902;-37.980;-63.602;2023-07-09T04:08:24;10.30;99.90
59961;DHT22;55902;-37.980;-63.602;2023-07-09T04:10:54;10.30;99.90
59961;DHT22;55902;-37.980;-63.602;2023-07-09T04:13:22;10.30;99.90
59961;DHT22;55902;-37.980;-63.602;2023-07-09T04:15:49;10.30;99.90
59961;DHT22;55902;-37.980;-63.602;2023-07-09T04:18:17;10.30;99.90
59961;DHT22;55902;-37.980;-63.602;2023-07-09T04:20:47;10.30;99.90
59961;DHT22;55902;-37.980;-63.602;2023-07-09T04:23:15;10.30;99.90
59961;DHT22;55902;-37.980;-63.602;2023-07-09T04:25:42;10.30;99.90
59961;DHT22;55902;-37.980;-63.602;2023-07-09T04:28:09;10.30;99.90
59961;DHT22;55902;-37.980;-63.602;2023-07-09T04:30:36;10.30;99.90
59961;DHT22;55902;-37.980;-63.602;2023-07-09T04:33:03;10.30;99.90
59961;DHT22;55902;-37.980;-63.602;2023-07-09T04:35:30;10.30;99.90
59961;DHT22;55902;-37.980;-63.602;2023-07-09T04:37:57;10.30;99.90
59961;DHT22;55902;-37.980;-63.602;2023-07-09T04:40:24;10.20;99.90
59961;DHT22;55902;-37.980;-63.602;2023-07-09T04:42:51;10.30;99.90
59961;DHT22;55902;-37.980;-63.602;2023-07-09T04:45:18;10.30;99.90
59961;DHT22;55902;-37.980;-63.602;2023-07-09T04:47:45;10.30;99.90
59961;DHT22;55902;-37.980;-63.602;2023-07-09T04:50:12;10.20;99.90
59961;DHT22;55902;-37.980;-63.602;2023-07-09T04:52:40;10.20;99.90
59961;DHT22;55902;-37.980;-63.602;2023-07-09T04:55:07;10.20;99.90
59961;DHT22;55902;-37.980;-63.602;2023-07-09T04:57:35;10.20;99.90
59961;DHT22;55902;-37.980;-63.602;2023-07-09T05:00:05;10.20;99.90
59961;DHT22;55902;-37.980;-63.602;2023-07-09T05:02:34;10.30;99.90
59961;DHT22;55902;-37.980;-63.602;2023-07-09T05:05:01;10.30;99.90
59961;DHT22;55902;-37.980;-63.602;2023-07-09T05:07:28;10.30;99.90
59961;DHT22;55902;-37.980;-63.602;2023-07-09T05:09:55;10.30;99.90
59961;DHT22;55902;-37.980;-63.602;2023-07-09T05:12:25;10.30;99.90
59961;DHT22;55902;-37.980;-63.602;2023-07-09T05:14:54;10.30;99.90
59961;DHT22;55902;-37.980;-63.602;2023-07-09T05:17:21;10.30;99.90
59961;DHT22;55902;-37.980;-63.602;2023-07-09T05:19:48;10.30;99.90
59961;DHT22;55902;-37.980;-63.602;2023-07-09T05:22:15;10.30;99.90
59961;DHT22;55902;-37.980;-63.602;2023-07-09T05:24:42;10.30;99.90
59961;DHT22;55902;-37.980;-63.602;2023-07-09T05:27:09;10.30;99.90
59961;DHT22;55902;-37.980;-63.602;2023-07-09T05:29:36;10.30;99.90
59961;DHT22;55902;-37.980;-63.602;2023-07-09T05:32:04;10.40;99.90
59961;DHT22;55902;-37.980;-63.602;2023-07-09T05:34:31;10.30;99.90
59961;DHT22;55902;-37.980;-63.602;2023-07-09T05:36:58;10.30;99.90
59961;DHT22;55902;-37.980;-63.602;2023-07-09T05:39:25;10.30;99.90
59961;DHT22;55902;-37.980;-63.602;2023-07-09T05:41:52;10.30;99.90
59961;DHT22;55902;-37.980;-63.602;2023-07-09T05:44:19;10.30;99.90
59961;DHT22;55902;-37.980;-63.602;2023-07-09T05:46:46;10.30;99.90
59961;DHT22;55902;-37.980;-63.602;2023-07-09T05:49:13;10.20;99.90
59961;DHT22;55902;-37.980;-63.602;2023-07-09T05:51:40;10.20;99.90
59961;DHT22;55902;-37.980;-63.602;2023-07-09T05:54:07;10.30;99.90
59961;DHT22;55902;-37.980;-63.602;2023-07-09T05:56:35;10.30;99.90
59961;DHT22;55902;-37.980;-63.602;2023-07-09T05:59:02;10.30;99.90
59961;DHT22;55902;-37.980;-63.602;2023-07-09T06:01:29;10.30;99.90
59961;DHT22;55902;-37.980;-63.602;2023-07-09T06:03:56;10.30;99.90
59961;DHT22;55902;-37.980;-63.602;2023-07-09T06:06:23;10.30;99.90
59961;DHT22;55902;-37.980;-63.602;2023-07-09T06:08:50;10.20;99.90
59961;DHT22;55902;-37.980;-63.602;2023-07-09T06:11:17;10.20;99.90
59961;DHT22;55902;-37.980;-63.602;2023-07-09T06:13:45;10.20;99.90
59961;DHT22;55902;-37.980;-63.602;2023-07-09T06:16:14;10.20;99.90
59961;DHT22;55902;-37.980;-63.602;2023-07-09T06:18:41;10.20;99.90
59961;DHT22;55902;-37.980;-63.602;2023-07-09T06:21:08;10.20;99.90
59961;DHT22;55902;-37.980;-63.602;2023-07-09T06:23:37;10.20;99.90
59961;DHT22;55902;-37.980;-63.602;2023-07-09T06:26:04;10.20;99.90
59961;DHT22;55902;-37.980;-63.602;2023-07-09T06:28:32;10.20;99.90
59961;DHT22;55902;-37.980;-63.602;2023-07-09T06:30:59;10.20;99.90
59961;DHT22;55902;-37.980;-63.602;2023-07-09T06:33:27;10.20;99.90
59961;DHT22;55902;-37.980;-63.602;2023-07-09T06:35:57;10.20;99.90
59961;DHT22;55902;-37.980;-63.602;2023-07-09T06:38:25;10.20;99.90
59961;DHT22;55902;-37.980;-63.602;2023-07-09T06:40:52;10.20;99.90
59961;DHT22;55902;-37.980;-63.602;2023-07-09T06:43:20;10.30;99.90
59961;DHT22;55902;-37.980;-63.602;2023-07-09T06:45:56;10.30;99.90
59961;DHT22;55902;-37.980;-63.602;2023-07-09T06:48:25;10.30;99.90
59961;DHT22;55902;-37.980;-63.602;2023-07-09T06:50:53;10.30;99.90
59961;DHT22;55902;-37.980;-63.602;2023-07-09T06:56:43;10.30;99.90
59961;DHT22;55902;-37.980;-63.602;2023-07-09T06:59:10;10.40;99.90
59961;DHT22;55902;-37.980;-63.602;2023-07-09T07:01:37;10.30;99.90
59961;DHT22;55902;-37.980;-63.602;2023-07-09T07:04:04;10.30;99.90
59961;DHT22;55902;-37.980;-63.602;2023-07-09T07:06:32;10.40;99.90
59961;DHT22;55902;-37.980;-63.602;2023-07-09T07:08:59;10.40;99.90
59961;DHT22;55902;-37.980;-63.602;2023-07-09T07:11:26;10.40;99.90
59961;DHT22;55902;-37.980;-63.602;2023-07-09T07:13:56;10.40;99.90
59961;DHT22;55902;-37.980;-63.602;2023-07-09T07:16:23;10.40;99.90
59961;DHT22;55902;-37.980;-63.602;2023-07-09T07:18:51;10.40;99.90
59961;DHT22;55902;-37.980;-63.602;2023-07-09T07:21:18;10.40;99.90
59961;DHT22;55902;-37.980;-63.602;2023-07-09T07:23:45;10.40;99.90
59961;DHT22;55902;-37.980;-63.602;2023-07-09T07:26:12;10.50;99.90
59961;DHT22;55902;-37.980;-63.602;2023-07-09T07:28:39;10.40;99.90
59961;DHT22;55902;-37.980;-63.602;2023-07-09T07:31:08;10.40;99.90
59961;DHT22;55902;-37.980;-63.602;2023-07-09T07:33:37;10.40;99.90
59961;DHT22;55902;-37.980;-63.602;2023-07-09T07:36:08;10.40;99.90
59961;DHT22;55902;-37.980;-63.602;2023-07-09T07:38:35;10.40;99.90
59961;DHT22;55902;-37.980;-63.602;2023-07-09T07:41:02;10.30;99.90
59961;DHT22;55902;-37.980;-63.602;2023-07-09T07:43:29;10.40;99.90
59961;DHT22;55902;-37.980;-63.602;2023-07-09T07:45:56;10.30;99.90
59961;DHT22;55902;-37.980;-63.602;2023-07-09T07:48:23;10.40;99.90
59961;DHT22;55902;-37.980;-63.602;2023-07-09T07:50:50;10.40;99.90
59961;DHT22;55902;-37.980;-63.602;2023-07-09T07:53:18;10.40;99.90
59961;DHT22;55902;-37.980;-63.602;2023-07-09T07:55:45;10.40;99.90
59961;DHT22;55902;-37.980;-63.602;2023-07-09T07:58:13;10.40;99.90
59961;DHT22;55902;-37.980;-63.602;2023-07-09T08:00:41;10.40;99.90
59961;DHT22;55902;-37.980;-63.602;2023-07-09T08:03:08;10.40;99.90
59961;DHT22;55902;-37.980;-63.602;2023-07-09T08:05:35;10.40;99.90
59961;DHT22;55902;-37.980;-63.602;2023-07-09T08:08:02;10.40;99.90
59961;DHT22;55902;-37.980;-63.602;2023-07-09T08:10:29;10.30;99.90
59961;DHT22;55902;-37.980;-63.602;2023-07-09T08:12:56;10.30;99.90
59961;DHT22;55902;-37.980;-63.602;2023-07-09T08:15:27;10.30;99.90
59961;DHT22;55902;-37.980;-63.602;2023-07-09T08:25:12;10.40;99.90
59961;DHT22;55902;-37.980;-63.602;2023-07-09T08:27:39;10.40;99.90
59961;DHT22;55902;-37.980;-63.602;2023-07-09T08:30:07;10.40;99.90
59961;DHT22;55902;-37.980;-63.602;2023-07-09T08:32:34;10.50;99.90
59961;DHT22;55902;-37.980;-63.602;2023-07-09T08:35:01;10.50;99.90
59961;DHT22;55902;-37.980;-63.602;2023-07-09T08:37:28;10.50;99.90
59961;DHT22;55902;-37.980;-63.602;2023-07-09T08:39:55;10.50;99.90
59961;DHT22;55902;-37.980;-63.602;2023-07-09T08:42:31;10.50;99.90
59961;DHT22;55902;-37.980;-63.602;2023-07-09T08:48:12;10.60;99.90
59961;DHT22;55902;-37.980;-63.602;2023-07-09T08:50:53;10.60;99.90
59961;DHT22;55902;-37.980;-63.602;2023-07-09T08:53:44;10.60;99.90
59961;DHT22;55902;-37.980;-63.602;2023-07-09T08:56:13;10.60;99.90
59961;DHT22;55902;-37.980;-63.602;2023-07-09T08:58:42;10.60;99.90
59961;DHT22;55902;-37.980;-63.602;2023-07-09T09:04:30;10.70;99.90
59961;DHT22;55902;-37.980;-63.602;2023-07-09T09:07:08;10.70;99.90
59961;DHT22;55902;-37.980;-63.602;2023-07-09T09:09:56;10.70;99.90
59961;DHT22;55902;-37.980;-63.602;2023-07-09T09:12:30;10.70;99.90
59961;DHT22;55902;-37.980;-63.602;2023-07-09T09:15:04;10.80;99.90
59961;DHT22;55902;-37.980;-63.602;2023-07-09T09:17:34;10.80;99.90
59961;DHT22;55902;-37.980;-63.602;2023-07-09T09:20:09;10.70;99.90
59961;DHT22;55902;-37.980;-63.602;2023-07-09T09:22:52;10.70;99.90
59961;DHT22;55902;-37.980;-63.602;2023-07-09T09:25:27;10.70;99.90
59961;DHT22;55902;-37.980;-63.602;2023-07-09T09:27:55;10.80;99.90
59961;DHT22;55902;-37.980;-63.602;2023-07-09T09:30:24;10.80;99.90
59961;DHT22;55902;-37.980;-63.602;2023-07-09T09:32:59;10.80;99.90
59961;DHT22;55902;-37.980;-63.602;2023-07-09T09:35:30;10.70;99.90
59961;DHT22;55902;-37.980;-63.602;2023-07-09T09:37:59;10.80;99.90
59961;DHT22;55902;-37.980;-63.602;2023-07-09T09:40:29;10.80;99.90
59961;DHT22;55902;-37.980;-63.602;2023-07-09T09:42:57;10.80;99.90
59961;DHT22;55902;-37.980;-63.602;2023-07-09T09:45:38;10.80;99.90
59961;DHT22;55902;-37.980;-63.602;2023-07-09T09:48:19;10.80;99.90
59961;DHT22;55902;-37.980;-63.602;2023-07-09T09:50:48;10.80;99.90
59961;DHT22;55902;-37.980;-63.602;2023-07-09T09:53:38;10.80;99.90
59961;DHT22;55902;-37.980;-63.602;2023-07-09T09:56:11;10.80;99.90
59961;DHT22;55902;-37.980;-63.602;2023-07-09T10:02:05;10.80;99.90
59961;DHT22;55902;-37.980;-63.602;2023-07-09T10:04:38;10.80;99.90
59961;DHT22;55902;-37.980;-63.602;2023-07-09T10:10:47;10.70;99.90
59961;DHT22;55902;-37.980;-63.602;2023-07-09T10:13:22;10.70;99.90
59961;DHT22;55902;-37.980;-63.602;2023-07-09T10:18:58;10.60;99.90
59961;DHT22;55902;-37.980;-63.602;2023-07-09T10:24:33;10.60;99.90
59961;DHT22;55902;-37.980;-63.602;2023-07-09T10:27:10;10.60;99.90
59961;DHT22;55902;-37.980;-63.602;2023-07-09T10:35:05;10.70;99.90
59961;DHT22;55902;-37.980;-63.602;2023-07-09T10:40:24;10.70;99.90
59961;DHT22;55902;-37.980;-63.602;2023-07-09T10:42:55;10.70;99.90
59961;DHT22;55902;-37.980;-63.602;2023-07-09T10:45:46;10.70;99.90
59961;DHT22;55902;-37.980;-63.602;2023-07-09T10:48:29;10.70;99.90
59961;DHT22;55902;-37.980;-63.602;2023-07-09T10:50:57;10.70;99.90
59961;DHT22;55902;-37.980;-63.602;2023-07-09T10:53:51;10.70;99.90
59961;DHT22;55902;-37.980;-63.602;2023-07-09T10:56:28;10.70;99.90
59961;DHT22;55902;-37.980;-63.602;2023-07-09T11:01:42;10.70;99.90
59961;DHT22;55902;-37.980;-63.602;2023-07-09T11:04:29;10.70;99.90
59961;DHT22;55902;-37.980;-63.602;2023-07-09T11:07:01;10.70;99.90
59961;DHT22;55902;-37.980;-63.602;2023-07-09T11:09:35;10.70;99.90
59961;DHT22;55902;-37.980;-63.602;2023-07-09T11:12:08;10.70;99.90
59961;DHT22;55902;-37.980;-63.602;2023-07-09T11:14:42;10.60;99.90
59961;DHT22;55902;-37.980;-63.602;2023-07-09T11:17:17;10.60;99.90
59961;DHT22;55902;-37.980;-63.602;2023-07-09T11:19:54;10.50;99.90
59961;DHT22;55902;-37.980;-63.602;2023-07-09T11:25:46;10.50;99.90
59961;DHT22;55902;-37.980;-63.602;2023-07-09T11:28:14;10.50;99.90
59961;DHT22;55902;-37.980;-63.602;2023-07-09T11:30:57;10.40;99.90
59961;DHT22;55902;-37.980;-63.602;2023-07-09T11:33:31;10.40;99.90
59961;DHT22;55902;-37.980;-63.602;2023-07-09T11:36:11;10.40;99.90
59961;DHT22;55902;-37.980;-63.602;2023-07-09T11:38:42;10.40;99.90
59961;DHT22;55902;-37.980;-63.602;2023-07-09T11:41:38;10.40;99.90
59961;DHT22;55902;-37.980;-63.602;2023-07-09T11:44:27;10.40;99.90
59961;DHT22;55902;-37.980;-63.602;2023-07-09T11:47:22;10.40;99.90
59961;DHT22;55902;-37.980;-63.602;2023-07-09T11:52:22;10.40;99.90
59961;DHT22;55902;-37.980;-63.602;2023-07-09T11:54:51;10.30;99.90
59961;DHT22;55902;-37.980;-63.602;2023-07-09T11:57:19;10.30;99.90
59961;DHT22;55902;-37.980;-63.602;2023-07-09T11:59:46;10.40;99.90
59961;DHT22;55902;-37.980;-63.602;2023-07-09T12:02:19;10.40;99.90
59961;DHT22;55902;-37.980;-63.602;2023-07-09T12:04:51;10.40;99.90
59961;DHT22;55902;-37.980;-63.602;2023-07-09T12:07:20;10.40;99.90
59961;DHT22;55902;-37.980;-63.602;2023-07-09T12:09:50;10.30;99.90
59961;DHT22;55902;-37.980;-63.602;2023-07-09T12:14:46;10.40;99.90
59961;DHT22;55902;-37.980;-63.602;2023-07-09T12:17:13;10.40;99.90
59961;DHT22;55902;-37.980;-63.602;2023-07-09T12:19:40;10.40;99.90
59961;DHT22;55902;-37.980;-63.602;2023-07-09T12:22:17;10.40;99.90
59961;DHT22;55902;-37.980;-63.602;2023-07-09T12:24:48;10.40;99.90
59961;DHT22;55902;-37.980;-63.602;2023-07-09T12:27:23;10.40;99.90
59961;DHT22;55902;-37.980;-63.602;2023-07-09T12:29:54;10.40;99.90
59961;DHT22;55902;-37.980;-63.602;2023-07-09T12:32:21;10.40;99.90
59961;DHT22;55902;-37.980;-63.602;2023-07-09T12:34:54;10.40;99.90
59961;DHT22;55902;-37.980;-63.602;2023-07-09T12:37:22;10.40;99.90
59961;DHT22;55902;-37.980;-63.602;2023-07-09T12:39:52;10.40;99.90
59961;DHT22;55902;-37.980;-63.602;2023-07-09T12:42:33;10.40;99.90
59961;DHT22;55902;-37.980;-63.602;2023-07-09T12:45:00;10.40;99.90
59961;DHT22;55902;-37.980;-63.602;2023-07-09T12:47:28;10.40;99.90
59961;DHT22;55902;-37.980;-63.602;2023-07-09T12:50:15;10.50;99.90
59961;DHT22;55902;-37.980;-63.602;2023-07-09T12:52:47;10.40;99.90
59961;DHT22;55902;-37.980;-63.602;2023-07-09T12:55:25;10.40;99.90
59961;DHT22;55902;-37.980;-63.602;2023-07-09T13:08:01;10.50;99.90
59961;DHT22;55902;-37.980;-63.602;2023-07-09T13:10:30;10.60;99.90
59961;DHT22;55902;-37.980;-63.602;2023-07-09T13:13:02;10.60;99.90
59961;DHT22;55902;-37.980;-63.602;2023-07-09T13:15:40;10.60;99.90
59961;DHT22;55902;-37.980;-63.602;2023-07-09T13:18:11;10.70;99.90
59961;DHT22;55902;-37.980;-63.602;2023-07-09T13:20:41;10.80;99.90
59961;DHT22;55902;-37.980;-63.602;2023-07-09T13:23:27;10.80;99.90
59961;DHT22;55902;-37.980;-63.602;2023-07-09T13:25:55;11.00;99.90
59961;DHT22;55902;-37.980;-63.602;2023-07-09T13:28:29;11.10;99.90
59961;DHT22;55902;-37.980;-63.602;2023-07-09T13:31:17;11.20;99.90
59961;DHT22;55902;-37.980;-63.602;2023-07-09T13:33:56;11.30;99.90
59961;DHT22;55902;-37.980;-63.602;2023-07-09T13:36:25;11.30;99.90
59961;DHT22;55902;-37.980;-63.602;2023-07-09T13:38:52;11.50;99.90
59961;DHT22;55902;-37.980;-63.602;2023-07-09T13:41:20;11.80;99.90
59961;DHT22;55902;-37.980;-63.602;2023-07-09T13:43:49;12.30;99.90
59961;DHT22;55902;-37.980;-63.602;2023-07-09T13:46:16;13.00;99.90
59961;DHT22;55902;-37.980;-63.602;2023-07-09T13:48:47;13.80;99.90
59961;DHT22;55902;-37.980;-63.602;2023-07-09T13:51:23;14.60;99.90
59961;DHT22;55902;-37.980;-63.602;2023-07-09T13:53:55;15.10;99.90
59961;DHT22;55902;-37.980;-63.602;2023-07-09T13:56:24;15.30;99.90
59961;DHT22;55902;-37.980;-63.602;2023-07-09T13:58:51;15.20;99.90
59961;DHT22;55902;-37.980;-63.602;2023-07-09T14:01:22;14.90;99.90
59961;DHT22;55902;-37.980;-63.602;2023-07-09T14:03:49;14.70;99.90
59961;DHT22;55902;-37.980;-63.602;2023-07-09T14:06:19;14.70;99.90
59961;DHT22;55902;-37.980;-63.602;2023-07-09T14:08:46;14.90;99.90
59961;DHT22;55902;-37.980;-63.602;2023-07-09T14:11:15;15.00;99.90
59961;DHT22;55902;-37.980;-63.602;2023-07-09T14:13:43;15.00;99.90
59961;DHT22;55902;-37.980;-63.602;2023-07-09T14:16:14;14.90;99.90
59961;DHT22;55902;-37.980;-63.602;2023-07-09T14:18:47;14.90;99.90
59961;DHT22;55902;-37.980;-63.602;2023-07-09T14:21:21;14.90;99.90
59961;DHT22;55902;-37.980;-63.602;2023-07-09T14:23:49;15.00;99.90
59961;DHT22;55902;-37.980;-63.602;2023-07-09T14:26:17;15.10;99.90
59961;DHT22;55902;-37.980;-63.602;2023-07-09T14:28:54;15.40;99.90
59961;DHT22;55902;-37.980;-63.602;2023-07-09T14:31:26;15.30;99.90
59961;DHT22;55902;-37.980;-63.602;2023-07-09T14:33:56;15.40;99.90
59961;DHT22;55902;-37.980;-63.602;2023-07-09T14:36:28;15.90;99.90
59961;DHT22;55902;-37.980;-63.602;2023-07-09T14:38:55;16.50;99.90
59961;DHT22;55902;-37.980;-63.602;2023-07-09T14:41:24;16.80;99.90
59961;DHT22;55902;-37.980;-63.602;2023-07-09T14:43:58;17.10;99.90
59961;DHT22;55902;-37.980;-63.602;2023-07-09T14:46:25;17.10;99.90
59961;DHT22;55902;-37.980;-63.602;2023-07-09T14:48:52;17.00;98.70
59961;DHT22;55902;-37.980;-63.602;2023-07-09T14:51:19;16.80;98.50
59961;DHT22;55902;-37.980;-63.602;2023-07-09T14:53:47;16.90;98.70
59961;DHT22;55902;-37.980;-63.602;2023-07-09T14:56:15;16.90;96.80
59961;DHT22;55902;-37.980;-63.602;2023-07-09T14:58:42;17.00;97.90
59961;DHT22;55902;-37.980;-63.602;2023-07-09T15:01:14;17.20;97.70
59961;DHT22;55902;-37.980;-63.602;2023-07-09T15:03:41;17.60;98.20
59961;DHT22;55902;-37.980;-63.602;2023-07-09T15:06:09;18.20;96.50
59961;DHT22;55902;-37.980;-63.602;2023-07-09T15:08:36;18.80;98.00
59961;DHT22;55902;-37.980;-63.602;2023-07-09T15:11:03;19.50;94.90
59961;DHT22;55902;-37.980;-63.602;2023-07-09T15:13:34;19.90;91.00
59961;DHT22;55902;-37.980;-63.602;2023-07-09T15:16:03;20.40;91.50
59961;DHT22;55902;-37.980;-63.602;2023-07-09T15:18:31;20.60;90.60
59961;DHT22;55902;-37.980;-63.602;2023-07-09T15:21:02;20.90;93.50
59961;DHT22;55902;-37.980;-63.602;2023-07-09T15:23:30;21.10;90.60
59961;DHT22;55902;-37.980;-63.602;2023-07-09T15:25:57;21.50;92.80
59961;DHT22;55902;-37.980;-63.602;2023-07-09T15:28:24;21.70;86.00
59961;DHT22;55902;-37.980;-63.602;2023-07-09T15:30:52;22.00;93.40
59961;DHT22;55902;-37.980;-63.602;2023-07-09T15:33:20;22.50;91.70
59961;DHT22;55902;-37.980;-63.602;2023-07-09T15:35:48;22.30;73.50
59961;DHT22;55902;-37.980;-63.602;2023-07-09T15:38:26;22.10;78.30
59961;DHT22;55902;-37.980;-63.602;2023-07-09T15:40:55;22.00;80.40
59961;DHT22;55902;-37.980;-63.602;2023-07-09T15:43:23;22.20;84.30
59961;DHT22;55902;-37.980;-63.602;2023-07-09T15:45:54;22.30;77.20
59961;DHT22;55902;-37.980;-63.602;2023-07-09T15:48:23;22.30;76.40
59961;DHT22;55902;-37.980;-63.602;2023-07-09T15:50:52;21.80;78.00
59961;DHT22;55902;-37.980;-63.602;2023-07-09T15:53:22;21.20;79.70
59961;DHT22;55902;-37.980;-63.602;2023-07-09T15:55:52;21.10;85.20
59961;DHT22;55902;-37.980;-63.602;2023-07-09T15:58:41;21.00;78.60
59961;DHT22;55902;-37.980;-63.602;2023-07-09T16:01:13;21.00;76.30
59961;DHT22;55902;-37.980;-63.602;2023-07-09T16:03:47;21.40;78.60
59961;DHT22;55902;-37.980;-63.602;2023-07-09T16:06:16;21.30;77.20
59961;DHT22;55902;-37.980;-63.602;2023-07-09T16:08:44;21.10;81.90
59961;DHT22;55902;-37.980;-63.602;2023-07-09T16:11:20;21.20;79.40
59961;DHT22;55902;-37.980;-63.602;2023-07-09T16:13:48;21.50;82.80